sensor_id;sensor_type;location;lat;lon;timestamp;temperature;humidity
22633;DHT22;11483;55.828;37.488;2023-03-01T00:01:27;-4.30;99.90
22633;DHT22;11483;55.828;37.488;2023-03-01T00:03:54;-4.30;99.90
22633;DHT22;11483;55.828;37.488;2023-03-01T00:06:20;-4.40;99.90
22633;DHT22;11483;55.828;37.488;2023-03-01T00:08:47;-4.40;99.90
22633;DHT22;11483;55.828;37.488;2023-03-01T00:11:26;-4.40;99.90
22633;DHT22;11483;55.828;37.488;2023-03-01T00:13:54;-4.40;99.90
22633;DHT22;11483;55.828;37.488;2023-03-01T00:16:27;-4.50;99.90
22633;DHT22;11483;55.828;37.488;2023-03-01T00:18:57;-4.50;99.90
22633;DHT22;11483;55.828;37.488;2023-03-01T00:21:23;-4.50;99.90
22633;DHT22;11483;55.828;37.488;2023-03-01T00:23:50;-4.50;99.90
22633;DHT22;11483;55.828;37.488;2023-03-01T00:26:17;-4.50;99.90
22633;DHT22;11483;55.828;37.488;2023-03-01T00:28:44;-4.50;99.90
22633;DHT22;11483;55.828;37.488;2023-03-01T00:31:16;-4.50;99.90
22633;DHT22;11483;55.828;37.488;2023-03-01T00:33:42;-4.50;99.90
22633;DHT22;11483;55.828;37.488;2023-03-01T00:36:10;-4.60;99.90
22633;DHT22;11483;55.828;37.488;2023-03-01T00:38:38;-4.60;99.90
22633;DHT22;11483;55.828;37.488;2023-03-01T00:41:14;-4.50;99.90
22633;DHT22;11483;55.828;37.488;2023-03-01T00:43:40;-4.60;99.90
22633;DHT22;11483;55.828;37.488;2023-03-01T00:46:12;-4.60;99.90
22633;DHT22;11483;55.828;37.488;2023-03-01T00:48:39;-4.60;99.90
22633;DHT22;11483;55.828;37.488;2023-03-01T00:51:09;-4.60;99.90
22633;DHT22;11483;55.828;37.488;2023-03-01T00:53:36;-4.60;99.90
22633;DHT22;11483;55.828;37.488;2023-03-01T00:56:03;-4.60;99.90
22633;DHT22;11483;55.828;37.488;2023-03-01T00:58:29;-4.60;99.90
22633;DHT22;11483;55.828;37.488;2023-03-01T01:00:55;-4.70;99.90
22633;DHT22;11483;55.828;37.488;2023-03-01T01:03:21;-4.70;99.90
22633;DHT22;11483;55.828;37.488;2023-03-01T01:05:47;-4.70;99.90
22633;DHT22;11483;55.828;37.488;2023-03-01T01:08:13;-4.70;99.90
22633;DHT22;11483;55.828;37.488;2023-03-01T01:10:39;-4.70;99.90
22633;DHT22;11483;55.828;37.488;2023-03-01T01:13:05;-4.70;99.90
22633;DHT22;11483;55.828;37.488;2023-03-01T01:15:35;-4.80;99.90
22633;DHT22;11483;55.828;37.488;2023-03-01T01:18:01;-4.80;99.90
22633;DHT22;11483;55.828;37.488;2023-03-01T01:20:27;-4.80;99.90
22633;DHT22;11483;55.828;37.488;2023-03-01T01:22:53;-4.80;99.90
22633;DHT22;11483;55.828;37.488;2023-03-01T01:25:19;-4.80;99.90
22633;DHT22;11483;55.828;37.488;2023-03-01T01:27:45;-4.90;99.90
22633;DHT22;11483;55.828;37.488;2023-03-01T01:30:11;-5.10;99.90
22633;DHT22;11483;55.828;37.488;2023-03-01T01:32:37;-4.90;99.90
22633;DHT22;11483;55.828;37.488;2023-03-01T01:35:03;-4.80;99.90
22633;DHT22;11483;55.828;37.488;2023-03-01T01:37:29;-4.90;99.90
22633;DHT22;11483;55.828;37.488;2023-03-01T01:39:59;-4.90;99.90
22633;DHT22;11483;55.828;37.488;2023-03-01T01:42:25;-4.90;99.90
22633;DHT22;11483;55.828;37.488;2023-03-01T01:45:31;-4.90;99.90
22633;DHT22;11483;55.828;37.488;2023-03-01T01:48:09;-4.80;99.90
22633;DHT22;11483;55.828;37.488;2023-03-01T01:50:38;-4.80;99.90
22633;DHT22;11483;55.828;37.488;2023-03-01T01:53:15;-4.70;99.90
22633;DHT22;11483;55.828;37.488;2023-03-01T01:55:47;-4.70;99.90
22633;DHT22;11483;55.828;37.488;2023-03-01T01:58:17;-4.60;99.90
22633;DHT22;11483;55.828;37.488;2023-03-01T02:00:44;-4.60;99.90
22633;DHT22;11483;55.828;37.488;2023-03-01T02:03:13;-4.60;99.90
22633;DHT22;11483;55.828;37.488;2023-03-01T02:08:37;-4.60;99.90
22633;DHT22;11483;55.828;37.488;2023-03-01T02:11:04;-4.70;99.90
22633;DHT22;11483;55.828;37.488;2023-03-01T02:13:31;-4.70;99.90
22633;DHT22;11483;55.828;37.488;2023-03-01T02:15:58;-4.80;99.90
22633;DHT22;11483;55.828;37.488;2023-03-01T02:18:24;-4.80;99.90
22633;DHT22;11483;55.828;37.488;2023-03-01T02:23:56;-4.90;99.90
22633;DHT22;11483;55.828;37.488;2023-03-01T02:29:26;-4.90;99.90
22633;DHT22;11483;55.828;37.488;2023-03-01T02:31:54;-4.90;99.90
22633;DHT22;11483;55.828;37.488;2023-03-01T02:34:24;-4.90;99.90
22633;DHT22;11483;55.828;37.488;2023-03-01T02:37:02;-5.00;99.90
22633;DHT22;11483;55.828;37.488;2023-03-01T02:39:42;-5.00;99.90
22633;DHT22;11483;55.828;37.488;2023-03-01T02:42:12;-5.00;99.90
22633;DHT22;11483;55.828;37.488;2023-03-01T02:44:39;-5.00;99.90
22633;DHT22;11483;55.828;37.488;2023-03-01T02:47:05;-5.10;99.90
22633;DHT22;11483;55.828;37.488;2023-03-01T02:49:34;-5.10;99.90
22633;DHT22;11483;55.828;37.488;2023-03-01T02:54:51;-5.10;99.90
22633;DHT22;11483;55.828;37.488;2023-03-01T02:57:19;-5.10;99.90
22633;DHT22;11483;55.828;37.488;2023-03-01T02:59:47;-5.10;99.90
22633;DHT22;11483;55.828;37.488;2023-03-01T03:02:28;-5.10;99.90
22633;DHT22;11483;55.828;37.488;2023-03-01T03:05:22;-5.10;99.90
22633;DHT22;11483;55.828;37.488;2023-03-01T03:07:49;-5.20;99.90
22633;DHT22;11483;55.828;37.488;2023-03-01T03:10:22;-5.20;99.90
22633;DHT22;11483;55.828;37.488;2023-03-01T03:12:51;-5.20;99.90
22633;DHT22;11483;55.828;37.488;2023-03-01T03:15:17;-5.30;99.90
22633;DHT22;11483;55.828;37.488;2023-03-01T03:17:43;-5.30;99.90
22633;DHT22;11483;55.828;37.488;2023-03-01T03:20:11;-5.30;99.90
22633;DHT22;11483;55.828;37.488;2023-03-01T03:22:41;-5.20;99.90
22633;DHT22;11483;55.828;37.488;2023-03-01T03:25:07;-5.30;99.90
22633;DHT22;11483;55.828;37.488;2023-03-01T03:27:38;-5.20;99.90
22633;DHT22;11483;55.828;37.488;2023-03-01T03:30:07;-5.30;99.90
22633;DHT22;11483;55.828;37.488;2023-03-01T03:32:42;-5.40;99.90
22633;DHT22;11483;55.828;37.488;2023-03-01T03:35:19;-5.40;99.90
22633;DHT22;11483;55.828;37.488;2023-03-01T03:37:46;-5.40;99.90
22633;DHT22;11483;55.828;37.488;2023-03-01T03:40:38;-5.40;99.90
22633;DHT22;11483;55.828;37.488;2023-03-01T03:43:08;-5.50;99.90
22633;DHT22;11483;55.828;37.488;2023-03-01T03:45:35;-5.50;99.90
22633;DHT22;11483;55.828;37.488;2023-03-01T03:48:03;-5.50;99.90
22633;DHT22;11483;55.828;37.488;2023-03-01T03:50:30;-5.50;99.90
22633;DHT22;11483;55.828;37.488;2023-03-01T03:52:56;-5.50;99.90
22633;DHT22;11483;55.828;37.488;2023-03-01T03:55:22;-5.50;99.90
22633;DHT22;11483;55.828;37.488;2023-03-01T03:57:48;-5.50;99.90
22633;DHT22;11483;55.828;37.488;2023-03-01T04:00:21;-5.60;99.90
22633;DHT22;11483;55.828;37.488;2023-03-01T04:02:49;-5.60;99.90
22633;DHT22;11483;55.828;37.488;2023-03-01T04:05:17;-5.60;99.90
22633;DHT22;11483;55.828;37.488;2023-03-01T04:07:44;-5.60;99.90
22633;DHT22;11483;55.828;37.488;2023-03-01T04:10:15;-5.70;99.90
22633;DHT22;11483;55.828;37.488;2023-03-01T04:12:41;-5.70;99.90
22633;DHT22;11483;55.828;37.488;2023-03-01T04:15:09;-5.70;99.90
22633;DHT22;11483;55.828;37.488;2023-03-01T04:17:42;-5.70;99.90
22633;DHT22;11483;55.828;37.488;2023-03-01T04:20:19;-5.70;99.90
22633;DHT22;11483;55.828;37.488;2023-03-01T04:22:52;-5.70;99.90
22633;DHT22;11483;55.828;37.488;2023-03-01T04:25:19;-5.70;99.90
22633;DHT22;11483;55.828;37.488;2023-03-01T04:27:45;-5.70;99.90
22633;DHT22;11483;55.828;37.488;2023-03-01T04:30:11;-5.70;99.90
22633;DHT22;11483;55.828;37.488;2023-03-01T04:32:37;-5.70;99.90
22633;DHT22;11483;55.828;37.488;2023-03-01T04:35:03;-5.70;99.90
22633;DHT22;11483;55.828;37.488;2023-03-01T04:37:28;-5.70;99.90
22633;DHT22;11483;55.828;37.488;2023-03-01T04:39:55;-5.70;99.90
22633;DHT22;11483;55.828;37.488;2023-03-01T04:42:21;-5.70;99.90
22633;DHT22;11483;55.828;37.488;2023-03-01T04:44:46;-5.70;99.90
22633;DHT22;11483;55.828;37.488;2023-03-01T04:47:13;-5.70;99.90
22633;DHT22;11483;55.828;37.488;2023-03-01T04:49:38;-5.70;99.90
22633;DHT22;11483;55.828;37.488;2023-03-01T04:52:04;-5.60;99.90
22633;DHT22;11483;55.828;37.488;2023-03-01T04:54:32;-5.60;99.90
22633;DHT22;11483;55.828;37.488;2023-03-01T04:56:59;-5.60;99.90
22633;DHT22;11483;55.828;37.488;2023-03-01T04:59:25;-5.60;99.90
22633;DHT22;11483;55.828;37.488;2023-03-01T05:01:52;-5.60;99.90
22633;DHT22;11483;55.828;37.488;2023-03-01T05:04:18;-5.60;99.90
22633;DHT22;11483;55.828;37.488;2023-03-01T05:06:43;-5.50;99.90
22633;DHT22;11483;55.828;37.488;2023-03-01T05:09:10;-5.50;99.90
22633;DHT22;11483;55.828;37.488;2023-03-01T05:11:37;-5.40;99.90
22633;DHT22;11483;55.828;37.488;2023-03-01T05:14:04;-5.40;99.90
22633;DHT22;11483;55.828;37.488;2023-03-01T05:16:31;-5.30;99.90
22633;DHT22;11483;55.828;37.488;2023-03-01T05:18:57;-5.30;99.90
22633;DHT22;11483;55.828;37.488;2023-03-01T05:21:24;-5.20;99.90
22633;DHT22;11483;55.828;37.488;2023-03-01T05:23:50;-5.20;99.90
22633;DHT22;11483;55.828;37.488;2023-03-01T05:26:18;-5.20;99.90
22633;DHT22;11483;55.828;37.488;2023-03-01T05:28:44;-5.20;99.90
22633;DHT22;11483;55.828;37.488;2023-03-01T05:31:10;-5.10;99.90
22633;DHT22;11483;55.828;37.488;2023-03-01T05:33:37;-5.20;99.90
22633;DHT22;11483;55.828;37.488;2023-03-01T05:36:04;-5.20;99.90
22633;DHT22;11483;55.828;37.488;2023-03-01T05:38:30;-5.10;99.90
22633;DHT22;11483;55.828;37.488;2023-03-01T05:40:56;-5.10;99.90
22633;DHT22;11483;55.828;37.488;2023-03-01T05:43:22;-5.00;99.90
22633;DHT22;11483;55.828;37.488;2023-03-01T05:45:48;-4.90;99.90
22633;DHT22;11483;55.828;37.488;2023-03-01T05:48:14;-4.90;99.90
22633;DHT22;11483;55.828;37.488;2023-03-01T05:50:43;-4.80;99.90
22633;DHT22;11483;55.828;37.488;2023-03-01T05:53:15;-4.80;99.90
22633;DHT22;11483;55.828;37.488;2023-03-01T05:55:41;-4.80;99.90
22633;DHT22;11483;55.828;37.488;2023-03-01T05:58:11;-4.80;99.90
22633;DHT22;11483;55.828;37.488;2023-03-01T06:00:40;-4.70;99.90
22633;DHT22;11483;55.828;37.488;2023-03-01T06:03:06;-4.60;99.90
22633;DHT22;11483;55.828;37.488;2023-03-01T06:05:32;-4.60;99.90
22633;DHT22;11483;55.828;37.488;2023-03-01T06:08:02;-4.70;99.90
22633;DHT22;11483;55.828;37.488;2023-03-01T06:10:28;-4.70;99.90
22633;DHT22;11483;55.828;37.488;2023-03-01T06:12:54;-4.60;99.90
22633;DHT22;11483;55.828;37.488;2023-03-01T06:15:20;-4.60;99.90
22633;DHT22;11483;55.828;37.488;2023-03-01T06:17:46;-4.50;99.90
22633;DHT22;11483;55.828;37.488;2023-03-01T06:20:15;-4.40;99.90
22633;DHT22;11483;55.828;37.488;2023-03-01T06:22:44;-4.20;99.90
22633;DHT22;11483;55.828;37.488;2023-03-01T06:25:11;-4.10;99.90
22633;DHT22;11483;55.828;37.488;2023-03-01T06:27:39;-4.10;99.90
22633;DHT22;11483;55.828;37.488;2023-03-01T06:30:05;-4.00;99.90
22633;DHT22;11483;55.828;37.488;2023-03-01T06:32:32;-3.90;99.90
22633;DHT22;11483;55.828;37.488;2023-03-01T06:34:58;-3.90;99.90
22633;DHT22;11483;55.828;37.488;2023-03-01T06:37:25;-4.00;99.90
22633;DHT22;11483;55.828;37.488;2023-03-01T06:39:51;-3.80;99.90
22633;DHT22;11483;55.828;37.488;2023-03-01T06:42:16;-3.60;99.90
22633;DHT22;11483;55.828;37.488;2023-03-01T06:44:44;-3.60;99.90
22633;DHT22;11483;55.828;37.488;2023-03-01T06:47:09;-3.60;99.90
22633;DHT22;11483;55.828;37.488;2023-03-01T06:49:35;-3.50;99.90
22633;DHT22;11483;55.828;37.488;2023-03-01T06:52:01;-3.40;99.90
22633;DHT22;11483;55.828;37.488;2023-03-01T06:54:27;-3.30;99.90
22633;DHT22;11483;55.828;37.488;2023-03-01T06:56:52;-3.00;99.90
22633;DHT22;11483;55.828;37.488;2023-03-01T06:59:19;-2.80;99.90
22633;DHT22;11483;55.828;37.488;2023-03-01T07:01:44;-2.80;99.90
22633;DHT22;11483;55.828;37.488;2023-03-01T07:04:11;-2.70;99.90
22633;DHT22;11483;55.828;37.488;2023-03-01T07:06:37;-2.70;99.90
22633;DHT22;11483;55.828;37.488;2023-03-01T07:09:03;-2.70;99.90
22633;DHT22;11483;55.828;37.488;2023-03-01T07:11:29;-2.70;99.90
22633;DHT22;11483;55.828;37.488;2023-03-01T07:13:55;-2.60;99.90
22633;DHT22;11483;55.828;37.488;2023-03-01T07:16:21;-2.80;99.90
22633;DHT22;11483;55.828;37.488;2023-03-01T07:18:47;-3.00;99.90
22633;DHT22;11483;55.828;37.488;2023-03-01T07:21:14;-3.10;99.90
22633;DHT22;11483;55.828;37.488;2023-03-01T07:23:42;-3.10;99.90
22633;DHT22;11483;55.828;37.488;2023-03-01T07:26:08;-3.10;99.90
22633;DHT22;11483;55.828;37.488;2023-03-01T07:28:34;-3.00;99.90
22633;DHT22;11483;55.828;37.488;2023-03-01T07:31:02;-2.90;99.90
22633;DHT22;11483;55.828;37.488;2023-03-01T07:33:28;-2.70;99.90
22633;DHT22;11483;55.828;37.488;2023-03-01T07:35:59;-2.50;99.90
22633;DHT22;11483;55.828;37.488;2023-03-01T07:38:26;-2.20;99.90
22633;DHT22;11483;55.828;37.488;2023-03-01T07:40:51;-1.90;99.90
22633;DHT22;11483;55.828;37.488;2023-03-01T07:43:17;-1.80;99.90
22633;DHT22;11483;55.828;37.488;2023-03-01T07:45:44;-1.60;99.90
22633;DHT22;11483;55.828;37.488;2023-03-01T07:48:09;-1.60;99.90
22633;DHT22;11483;55.828;37.488;2023-03-01T07:50:35;-1.40;99.90
22633;DHT22;11483;55.828;37.488;2023-03-01T07:53:01;-1.60;99.90
22633;DHT22;11483;55.828;37.488;2023-03-01T07:55:28;-1.80;99.90
22633;DHT22;11483;55.828;37.488;2023-03-01T07:57:53;-1.60;99.90
22633;DHT22;11483;55.828;37.488;2023-03-01T08:00:19;-1.50;99.90
22633;DHT22;11483;55.828;37.488;2023-03-01T08:02:45;-1.50;99.90
22633;DHT22;11483;55.828;37.488;2023-03-01T08:05:11;-1.50;99.90
22633;DHT22;11483;55.828;37.488;2023-03-01T08:07:37;-1.50;99.90
22633;DHT22;11483;55.828;37.488;2023-03-01T08:10:03;-1.50;99.90
22633;DHT22;11483;55.828;37.488;2023-03-01T08:12:29;-1.50;99.90
22633;DHT22;11483;55.828;37.488;2023-03-01T08:14:55;-1.20;99.90
22633;DHT22;11483;55.828;37.488;2023-03-01T08:17:22;-1.10;99.90
22633;DHT22;11483;55.828;37.488;2023-03-01T08:19:48;-1.00;99.90
22633;DHT22;11483;55.828;37.488;2023-03-01T08:22:15;-1.20;99.90
22633;DHT22;11483;55.828;37.488;2023-03-01T08:24:40;-1.20;99.90
22633;DHT22;11483;55.828;37.488;2023-03-01T08:27:06;-0.80;99.90
22633;DHT22;11483;55.828;37.488;2023-03-01T08:29:33;-1.10;99.90
22633;DHT22;11483;55.828;37.488;2023-03-01T08:31:59;-1.30;99.90
22633;DHT22;11483;55.828;37.488;2023-03-01T08:34:25;-1.40;99.90
22633;DHT22;11483;55.828;37.488;2023-03-01T08:36:51;-1.50;99.90
22633;DHT22;11483;55.828;37.488;2023-03-01T08:39:19;-1.50;99.90
22633;DHT22;11483;55.828;37.488;2023-03-01T08:41:46;-1.30;99.90
22633;DHT22;11483;55.828;37.488;2023-03-01T08:44:13;-0.90;99.90
22633;DHT22;11483;55.828;37.488;2023-03-01T08:46:42;-0.40;99.90
22633;DHT22;11483;55.828;37.488;2023-03-01T08:49:11;1.40;99.90
22633;DHT22;11483;55.828;37.488;2023-03-01T08:51:38;3.30;99.90
22633;DHT22;11483;55.828;37.488;2023-03-01T08:54:05;3.70;99.90
22633;DHT22;11483;55.828;37.488;2023-03-01T08:56:31;4.30;99.90
22633;DHT22;11483;55.828;37.488;2023-03-01T08:58:56;4.60;99.90
22633;DHT22;11483;55.828;37.488;2023-03-01T09:01:22;5.20;99.90
22633;DHT22;11483;55.828;37.488;2023-03-01T09:03:48;5.20;99.40
22633;DHT22;11483;55.828;37.488;2023-03-01T09:06:14;5.40;97.90
22633;DHT22;11483;55.828;37.488;2023-03-01T09:08:43;5.40;96.80
22633;DHT22;11483;55.828;37.488;2023-03-01T09:11:10;5.90;97.10
22633;DHT22;11483;55.828;37.488;2023-03-01T09:13:37;6.40;94.70
22633;DHT22;11483;55.828;37.488;2023-03-01T09:16:05;6.30;95.00
22633;DHT22;11483;55.828;37.488;2023-03-01T09:18:31;6.70;94.00
22633;DHT22;11483;55.828;37.488;2023-03-01T09:21:03;6.60;92.60
22633;DHT22;11483;55.828;37.488;2023-03-01T09:23:34;6.50;92.10
22633;DHT22;11483;55.828;37.488;2023-03-01T09:26:02;5.60;93.40
22633;DHT22;11483;55.828;37.488;2023-03-01T09:28:28;5.50;93.10
22633;DHT22;11483;55.828;37.488;2023-03-01T09:30:58;5.80;92.70
22633;DHT22;11483;55.828;37.488;2023-03-01T09:33:25;5.80;92.10
22633;DHT22;11483;55.828;37.488;2023-03-01T09:35:56;6.50;91.90
22633;DHT22;11483;55.828;37.488;2023-03-01T09:38:22;6.50;91.30
22633;DHT22;11483;55.828;37.488;2023-03-01T09:40:48;6.90;90.90
22633;DHT22;11483;55.828;37.488;2023-03-01T09:43:31;7.30;88.90
22633;DHT22;11483;55.828;37.488;2023-03-01T09:46:04;7.70;87.90
22633;DHT22;11483;55.828;37.488;2023-03-01T09:48:40;7.60;87.20
22633;DHT22;11483;55.828;37.488;2023-03-01T09:53:51;7.40;87.40
22633;DHT22;11483;55.828;37.488;2023-03-01T10:04:48;2.50;93.40
22633;DHT22;11483;55.828;37.488;2023-03-01T10:10:28;2.80;95.70
22633;DHT22;11483;55.828;37.488;2023-03-01T10:12:55;3.30;95.10
22633;DHT22;11483;55.828;37.488;2023-03-01T10:15:38;3.70;94.10
22633;DHT22;11483;55.828;37.488;2023-03-01T10:18:27;3.90;94.80
22633;DHT22;11483;55.828;37.488;2023-03-01T10:21:15;3.30;94.60
22633;DHT22;11483;55.828;37.488;2023-03-01T10:23:42;3.60;94.30
22633;DHT22;11483;55.828;37.488;2023-03-01T10:26:22;3.60;93.80
22633;DHT22;11483;55.828;37.488;2023-03-01T10:29:09;2.80;95.20
22633;DHT22;11483;55.828;37.488;2023-03-01T10:31:43;1.70;96.20
22633;DHT22;11483;55.828;37.488;2023-03-01T10:34:21;1.20;97.90
22633;DHT22;11483;55.828;37.488;2023-03-01T10:36:51;0.60;98.30
22633;DHT22;11483;55.828;37.488;2023-03-01T10:39:20;0.20;99.90
22633;DHT22;11483;55.828;37.488;2023-03-01T10:42:00;0.20;99.90
22633;DHT22;11483;55.828;37.488;2023-03-01T10:47:08;2.00;98.90
22633;DHT22;11483;55.828;37.488;2023-03-01T10:49:37;1.50;98.40
22633;DHT22;11483;55.828;37.488;2023-03-01T10:52:18;1.60;99.80
22633;DHT22;11483;55.828;37.488;2023-03-01T10:54:53;1.50;98.30
22633;DHT22;11483;55.828;37.488;2023-03-01T10:57:29;1.10;99.10
22633;DHT22;11483;55.828;37.488;2023-03-01T11:00:24;0.80;99.90
22633;DHT22;11483;55.828;37.488;2023-03-01T11:03:02;0.70;99.90
22633;DHT22;11483;55.828;37.488;2023-03-01T11:05:29;0.80;99.90
22633;DHT22;11483;55.828;37.488;2023-03-01T11:07:58;0.60;99.90
22633;DHT22;11483;55.828;37.488;2023-03-01T11:10:27;1.00;99.90
22633;DHT22;11483;55.828;37.488;2023-03-01T11:13:05;1.30;99.90
22633;DHT22;11483;55.828;37.488;2023-03-01T11:15:31;1.80;99.90
22633;DHT22;11483;55.828;37.488;2023-03-01T11:17:57;2.40;98.80
22633;DHT22;11483;55.828;37.488;2023-03-01T11:20:24;1.60;98.90
22633;DHT22;11483;55.828;37.488;2023-03-01T11:22:59;0.80;99.90
22633;DHT22;11483;55.828;37.488;2023-03-01T11:25:31;0.20;99.90
22633;DHT22;11483;55.828;37.488;2023-03-01T11:27:59;0.30;99.90
22633;DHT22;11483;55.828;37.488;2023-03-01T11:33:21;-0.10;99.90
22633;DHT22;11483;55.828;37.488;2023-03-01T11:36:02;-0.20;99.90
22633;DHT22;11483;55.828;37.488;2023-03-01T11:38:34;-0.20;99.90
22633;DHT22;11483;55.828;37.488;2023-03-01T11:44:01;0.40;99.90
22633;DHT22;11483;55.828;37.488;2023-03-01T11:49:20;0.30;99.90
22633;DHT22;11483;55.828;37.488;2023-03-01T11:52:12;0.50;99.90
22633;DHT22;11483;55.828;37.488;2023-03-01T11:55:04;0.70;99.90
22633;DHT22;11483;55.828;37.488;2023-03-01T12:00:48;2.00;99.90
22633;DHT22;11483;55.828;37.488;2023-03-01T12:09:31;1.00;99.90
22633;DHT22;11483;55.828;37.488;2023-03-01T12:23:20;0.60;99.90
22633;DHT22;11483;55.828;37.488;2023-03-01T12:31:43;1.20;99.70
22633;DHT22;11483;55.828;37.488;2023-03-01T12:40:17;0.00;99.90
22633;DHT22;11483;55.828;37.488;2023-03-01T12:42:58;-0.10;99.90
22633;DHT22;11483;55.828;37.488;2023-03-01T12:45:58;-0.20;99.90
22633;DHT22;11483;55.828;37.488;2023-03-01T12:51:24;-0.20;99.90
22633;DHT22;11483;55.828;37.488;2023-03-01T12:53:53;-0.40;99.90
22633;DHT22;11483;55.828;37.488;2023-03-01T12:56:25;-0.60;99.90
22633;DHT22;11483;55.828;37.488;2023-03-01T13:09:57;-1.00;99.90
22633;DHT22;11483;55.828;37.488;2023-03-01T13:18:00;-1.20;99.90
22633;DHT22;11483;55.828;37.488;2023-03-01T13:20:45;-1.20;99.90
22633;DHT22;11483;55.828;37.488;2023-03-01T13:28:38;-1.40;99.90
22633;DHT22;11483;55.828;37.488;2023-03-01T13:31:11;-1.40;99.90
22633;DHT22;11483;55.828;37.488;2023-03-01T13:33:57;-1.50;99.90
22633;DHT22;11483;55.828;37.488;2023-03-01T13:47:14;-1.80;99.90
22633;DHT22;11483;55.828;37.488;2023-03-01T13:49:53;-1.80;99.90
22633;DHT22;11483;55.828;37.488;2023-03-01T13:52:34;-1.70;99.90
22633;DHT22;11483;55.828;37.488;2023-03-01T13:55:06;-1.70;99.90
22633;DHT22;11483;55.828;37.488;2023-03-01T13:57:37;-1.60;99.90
22633;DHT22;11483;55.828;37.488;2023-03-01T14:00:05;-1.60;99.90
22633;DHT22;11483;55.828;37.488;2023-03-01T14:02:31;-1.60;99.90
22633;DHT22;11483;55.828;37.488;2023-03-01T14:04:59;-1.70;99.90
22633;DHT22;11483;55.828;37.488;2023-03-01T14:07:26;-1.80;99.90
22633;DHT22;11483;55.828;37.488;2023-03-01T14:09:59;-1.90;99.90
22633;DHT22;11483;55.828;37.488;2023-03-01T14:12:39;-1.90;99.90
22633;DHT22;11483;55.828;37.488;2023-03-01T14:15:24;-1.80;99.90
22633;DHT22;11483;55.828;37.488;2023-03-01T14:18:03;-1.90;99.90
22633;DHT22;11483;55.828;37.488;2023-03-01T14:20:42;-1.90;99.90
22633;DHT22;11483;55.828;37.488;2023-03-01T14:23:13;-1.80;99.90
22633;DHT22;11483;55.828;37.488;2023-03-01T14:25:57;-1.80;99.90
22633;DHT22;11483;55.828;37.488;2023-03-01T14:28:29;-1.80;99.90
22633;DHT22;11483;55.828;37.488;2023-03-01T14:30:58;-1.80;99.90
22633;DHT22;11483;55.828;37.488;2023-03-01T14:33:28;-1.80;99.90
22633;DHT22;11483;55.828;37.488;2023-03-01T14:36:07;-1.80;99.90
22633;DHT22;11483;55.828;37.488;2023-03-01T14:38:45;-1.80;99.90
22633;DHT22;11483;55.828;37.488;2023-03-01T14:41:19;-1.80;99.90
22633;DHT22;11483;55.828;37.488;2023-03-01T14:43:50;-1.90;99.90
22633;DHT22;11483;55.828;37.488;2023-03-01T14:46:21;-1.80;99.90
22633;DHT22;11483;55.828;37.488;2023-03-01T14:48:53;-1.90;99.90
22633;DHT22;11483;55.828;37.488;2023-03-01T14:51:20;-1.90;99.90
22633;DHT22;11483;55.828;37.488;2023-03-01T14:53:46;-1.90;99.90
22633;DHT22;11483;55.828;37.488;2023-03-01T14:56:14;-2.00;99.90
22633;DHT22;11483;55.828;37.488;2023-03-01T14:58:43;-2.10;99.90
22633;DHT22;11483;55.828;37.488;2023-03-01T15:01:16;-2.10;99.90
22633;DHT22;11483;55.828;37.488;2023-03-01T15:03:43;-2.10;99.90
22633;DHT22;11483;55.828;37.488;2023-03-01T15:06:10;-2.10;99.90
22633;DHT22;11483;55.828;37.488;2023-03-01T15:08:41;-2.10;99.90
22633;DHT22;11483;55.828;37.488;2023-03-01T15:11:29;-2.10;99.90
22633;DHT22;11483;55.828;37.488;2023-03-01T15:13:56;-2.10;99.90
22633;DHT22;11483;55.828;37.488;2023-03-01T15:16:32;-2.10;99.90
22633;DHT22;11483;55.828;37.488;2023-03-01T15:19:04;-2.00;99.90
22633;DHT22;11483;55.828;37.488;2023-03-01T15:21:31;-2.00;99.90
22633;DHT22;11483;55.828;37.488;2023-03-01T15:26:39;-2.10;99.90
22633;DHT22;11483;55.828;37.488;2023-03-01T15:29:16;-2.10;99.90
22633;DHT22;11483;55.828;37.488;2023-03-01T15:31:43;-2.10;99.90
22633;DHT22;11483;55.828;37.488;2023-03-01T15:34:27;-2.10;99.90
22633;DHT22;11483;55.828;37.488;2023-03-01T15:36:54;-2.10;99.90
22633;DHT22;11483;55.828;37.488;2023-03-01T15:39:34;-2.20;99.90
22633;DHT22;11483;55.828;37.488;2023-03-01T15:47:50;-2.20;99.90
22633;DHT22;11483;55.828;37.488;2023-03-01T15:50:32;-2.20;99.90
22633;DHT22;11483;55.828;37.488;2023-03-01T15:53:00;-2.20;99.90
22633;DHT22;11483;55.828;37.488;2023-03-01T15:55:28;-2.30;99.90
22633;DHT22;11483;55.828;37.488;2023-03-01T15:58:05;-2.20;99.90
22633;DHT22;11483;55.828;37.488;2023-03-01T16:00:32;-2.30;99.90
22633;DHT22;11483;55.828;37.488;2023-03-01T16:02:59;-2.30;99.90
22633;DHT22;11483;55.828;37.488;2023-03-01T16:05:30;-2.30;99.90
22633;DHT22;11483;55.828;37.488;2023-03-01T16:07:57;-2.20;99.90
22633;DHT22;11483;55.828;37.488;2023-03-01T16:10:23;-2.20;99.90
22633;DHT22;11483;55.828;37.488;2023-03-01T16:12:50;-2.20;99.90
22633;DHT22;11483;55.828;37.488;2023-03-01T16:15:30;-2.20;99.90
22633;DHT22;11483;55.828;37.488;2023-03-01T16:18:00;-2.40;99.90
22633;DHT22;11483;55.828;37.488;2023-03-01T16:20:30;-2.10;99.90
22633;DHT22;11483;55.828;37.488;2023-03-01T16:23:06;-2.10;99.90
22633;DHT22;11483;55.828;37.488;2023-03-01T16:25:40;-2.10;99.90
22633;DHT22;11483;55.828;37.488;2023-03-01T16:28:07;-2.00;99.90
22633;DHT22;11483;55.828;37.488;2023-03-01T16:30:37;-2.20;99.90
22633;DHT22;11483;55.828;37.488;2023-03-01T16:33:04;-2.20;99.90
22633;DHT22;11483;55.828;37.488;2023-03-01T16:35:33;-2.20;99.90
22633;DHT22;11483;55.828;37.488;2023-03-01T16:38:04;-2.20;99.90
22633;DHT22;11483;55.828;37.488;2023-03-01T16:40:30;-2.20;99.90
22633;DHT22;11483;55.828;37.488;2023-03-01T16:42:57;-2.20;99.90
22633;DHT22;11483;55.828;37.488;2023-03-01T16:45:26;-2.20;99.90
22633;DHT22;11483;55.828;37.488;2023-03-01T16:47:53;-2.20;99.90
22633;DHT22;11483;55.828;37.488;2023-03-01T16:50:19;-2.20;99.90
22633;DHT22;11483;55.828;37.488;2023-03-01T16:52:45;-2.20;99.90
22633;DHT22;11483;55.828;37.488;2023-03-01T16:55:11;-2.20;99.90
22633;DHT22;11483;55.828;37.488;2023-03-01T16:57:38;-2.20;99.90
22633;DHT22;11483;55.828;37.488;2023-03-01T17:00:05;-2.20;99.90
22633;DHT22;11483;55.828;37.488;2023-03-01T17:02:36;-2.30;99.90
22633;DHT22;11483;55.828;37.488;2023-03-01T17:05:02;-2.30;99.90
22633;DHT22;11483;55.828;37.488;2023-03-01T17:07:29;-2.30;99.90
22633;DHT22;11483;55.828;37.488;2023-03-01T17:09:59;-2.20;99.90
22633;DHT22;11483;55.828;37.488;2023-03-01T17:12:25;-2.20;99.90
22633;DHT22;11483;55.828;37.488;2023-03-01T17:14:51;-2.20;99.90
22633;DHT22;11483;55.828;37.488;2023-03-01T17:17:17;-2.20;99.90
22633;DHT22;11483;55.828;37.488;2023-03-01T17:19:43;-2.20;99.90
22633;DHT22;11483;55.828;37.488;2023-03-01T17:22:09;-2.10;99.90
22633;DHT22;11483;55.828;37.488;2023-03-01T17:24:37;-2.20;99.90
22633;DHT22;11483;55.828;37.488;2023-03-01T17:27:04;-2.10;99.90